createdAt,value
2022-08-24T00:02:19.658Z,17.80
2022-08-24T00:04:52.785Z,17.90
2022-08-24T00:07:27.412Z,17.90
2022-08-24T00:09:58.343Z,17.90
2022-08-24T00:12:28.635Z,17.80
2022-08-24T00:14:59.334Z,17.70
2022-08-24T00:17:29.667Z,17.70
2022-08-24T00:20:02.869Z,17.70
2022-08-24T00:22:33.223Z,17.70
2022-08-24T00:25:03.649Z,17.70
2022-08-24T00:27:34.177Z,17.70
2022-08-24T00:30:04.876Z,17.60
2022-08-24T00:32:36.012Z,17.70
2022-08-24T00:35:10.845Z,17.70
2022-08-24T00:37:42.266Z,17.60
2022-08-24T00:40:18.554Z,17.60
2022-08-24T00:42:49.365Z,17.60
2022-08-24T00:45:22.268Z,17.60
2022-08-24T00:48:02.460Z,17.60
2022-08-24T00:50:41.050Z,17.60
2022-08-24T00:53:16.815Z,17.60
2022-08-24T00:55:52.497Z,17.50
2022-08-24T00:58:29.067Z,17.50
2022-08-24T01:01:05.935Z,17.40
2022-08-24T01:03:37.895Z,17.50
2022-08-24T01:06:12.681Z,17.50
2022-08-24T01:08:44.682Z,17.40
2022-08-24T01:11:18.664Z,17.50
2022-08-24T01:13:52.404Z,17.40
2022-08-24T01:16:36.656Z,17.50
2022-08-24T01:19:11.233Z,17.40
2022-08-24T01:21:49.970Z,17.40
2022-08-24T01:24:22.889Z,17.40
2022-08-24T01:26:54.645Z,17.40
2022-08-24T01:29:29.278Z,17.40
2022-08-24T01:32:01.909Z,17.40
2022-08-24T01:34:32.165Z,17.40
2022-08-24T01:37:02.815Z,17.40
2022-08-24T01:39:40.388Z,17.40
2022-08-24T01:42:11.506Z,17.40
2022-08-24T01:44:45.676Z,17.40
2022-08-24T01:47:18.883Z,17.40
2022-08-24T01:49:52.001Z,17.50
2022-08-24T01:52:38.856Z,17.50
2022-08-24T01:55:22.804Z,17.50
2022-08-24T01:57:53.235Z,17.60
2022-08-24T02:00:24.229Z,17.60
2022-08-24T02:02:56.700Z,17.60
2022-08-24T02:05:27.851Z,17.70
2022-08-24T02:07:59.093Z,17.70
2022-08-24T02:10:32.689Z,17.70
2022-08-24T02:13:03.045Z,17.70
2022-08-24T02:15:38.873Z,17.80
2022-08-24T02:18:15.029Z,17.80
2022-08-24T02:20:46.369Z,17.80
2022-08-24T02:23:16.770Z,17.90
2022-08-24T02:25:49.904Z,17.90
2022-08-24T02:28:20.406Z,17.90
2022-08-24T02:30:51.320Z,18.00
2022-08-24T02:33:23.750Z,18.00
2022-08-24T02:35:55.298Z,18.00
2022-08-24T02:38:25.626Z,18.00
2022-08-24T02:40:58.428Z,18.00
2022-08-24T02:43:28.916Z,18.00
2022-08-24T02:46:00.896Z,18.00
2022-08-24T02:48:31.325Z,18.00
2022-08-24T02:51:01.572Z,18.00
2022-08-24T02:53:31.958Z,18.00
2022-08-24T02:56:04.817Z,18.00
2022-08-24T02:58:35.099Z,18.00
2022-08-24T03:01:05.362Z,18.00
2022-08-24T03:03:49.021Z,18.00
2022-08-24T03:06:19.329Z,18.00
2022-08-24T03:08:56.185Z,18.00
2022-08-24T03:11:31.045Z,18.00
2022-08-24T03:14:02.123Z,18.00
2022-08-24T03:16:34.123Z,17.90
2022-08-24T03:19:04.560Z,17.90
2022-08-24T03:21:35.458Z,17.90
2022-08-24T03:24:07.369Z,17.90
2022-08-24T03:26:44.029Z,17.80
2022-08-24T03:29:15.910Z,17.70
2022-08-24T03:31:46.625Z,17.70
2022-08-24T03:34:20.592Z,17.70
2022-08-24T03:36:52.974Z,17.60
2022-08-24T03:39:23.114Z,17.70
2022-08-24T03:41:56.864Z,17.60
2022-08-24T03:44:28.341Z,17.60
2022-08-24T03:46:59.460Z,17.60
2022-08-24T03:49:29.838Z,17.60
2022-08-24T03:52:00.561Z,17.60
2022-08-24T03:54:31.446Z,17.60
2022-08-24T03:57:04.569Z,17.40
2022-08-24T03:59:34.874Z,17.40
2022-08-24T04:02:12.592Z,17.40
2022-08-24T04:04:45.114Z,17.40
2022-08-24T04:07:15.490Z,17.40
2022-08-24T04:09:45.812Z,17.40
2022-08-24T04:12:18.697Z,17.30
2022-08-24T04:14:56.039Z,17.30
2022-08-24T04:17:26.361Z,17.30
2022-08-24T04:20:03.123Z,17.30
2022-08-24T04:22:36.578Z,17.30
2022-08-24T04:25:09.385Z,17.20
2022-08-24T04:27:43.871Z,17.10
2022-08-24T04:30:16.976Z,17.10
2022-08-24T04:32:47.277Z,17.10
2022-08-24T04:35:17.503Z,17.10
2022-08-24T04:37:47.706Z,17.20
2022-08-24T04:40:19.494Z,17.10
2022-08-24T04:42:52.803Z,17.20
2022-08-24T04:45:23.347Z,17.20
2022-08-24T04:47:53.751Z,17.20
2022-08-24T04:50:24.928Z,17.20
2022-08-24T04:52:55.623Z,17.20
2022-08-24T04:55:25.906Z,17.20
2022-08-24T04:57:58.936Z,17.30
2022-08-24T05:00:29.439Z,17.30
2022-08-24T05:03:00.207Z,17.30
2022-08-24T05:05:30.681Z,17.30
2022-08-24T05:08:01.000Z,17.30
2022-08-24T05:10:33.559Z,17.30
2022-08-24T05:13:07.141Z,17.30
2022-08-24T05:15:38.632Z,17.40
2022-08-24T05:18:09.125Z,17.40
2022-08-24T05:20:42.828Z,17.40
2022-08-24T05:23:13.173Z,17.40
2022-08-24T05:25:45.093Z,17.50
2022-08-24T05:28:17.912Z,17.50
2022-08-24T05:30:48.152Z,17.60
2022-08-24T05:33:21.517Z,17.60
2022-08-24T05:35:51.785Z,17.70
2022-08-24T05:38:22.061Z,17.80
2022-08-24T05:40:52.320Z,17.80
2022-08-24T05:43:25.312Z,17.90
2022-08-24T05:45:55.515Z,18.00
2022-08-24T05:48:26.320Z,18.10
2022-08-24T05:50:58.311Z,18.10
2022-08-24T05:53:28.812Z,18.30
2022-08-24T05:56:02.140Z,18.30
2022-08-24T05:58:35.183Z,18.40
2022-08-24T06:01:10.506Z,18.40
2022-08-24T06:03:41.661Z,18.40
2022-08-24T06:06:13.652Z,18.50
2022-08-24T06:08:47.333Z,18.60
2022-08-24T06:11:30.050Z,18.70
2022-08-24T06:14:09.050Z,18.70
2022-08-24T06:16:45.304Z,18.80
2022-08-24T06:19:20.389Z,18.90
2022-08-24T06:21:54.695Z,19.00
2022-08-24T06:24:47.201Z,19.00
2022-08-24T06:27:22.966Z,19.10
2022-08-24T06:29:59.910Z,19.10
2022-08-24T06:32:31.554Z,19.10
2022-08-24T06:35:02.164Z,19.10
2022-08-24T06:37:33.126Z,19.30
2022-08-24T06:40:03.980Z,19.40
2022-08-24T06:42:34.471Z,19.40
2022-08-24T06:45:08.314Z,19.40
2022-08-24T06:47:38.607Z,19.60
2022-08-24T06:50:11.199Z,19.60
2022-08-24T06:52:41.557Z,19.80
2022-08-24T06:55:14.696Z,19.80
2022-08-24T06:57:48.055Z,19.80
2022-08-24T07:00:25.614Z,19.80
2022-08-24T07:02:55.900Z,20.00
2022-08-24T07:05:26.277Z,20.00
2022-08-24T07:07:57.943Z,20.00
2022-08-24T07:10:30.089Z,19.90
2022-08-24T07:13:00.820Z,20.00
2022-08-24T07:15:34.486Z,19.90
2022-08-24T07:18:04.977Z,19.80
2022-08-24T07:20:35.342Z,19.80
2022-08-24T07:23:05.766Z,19.80
2022-08-24T07:25:36.925Z,19.80
2022-08-24T07:28:10.091Z,19.80
2022-08-24T07:30:45.736Z,19.80
2022-08-24T07:33:16.561Z,19.90
2022-08-24T07:35:47.355Z,19.90
2022-08-24T07:38:17.500Z,19.90
2022-08-24T07:41:09.729Z,19.80
2022-08-24T07:43:42.962Z,19.90
2022-08-24T07:46:16.390Z,19.90
2022-08-24T07:48:48.474Z,19.90
2022-08-24T07:51:22.462Z,19.90
2022-08-24T07:53:54.139Z,19.90
2022-08-24T07:56:24.588Z,19.90
2022-08-24T07:58:54.873Z,19.90
2022-08-24T08:01:27.858Z,19.90
2022-08-24T08:03:58.129Z,19.90
2022-08-24T08:06:28.368Z,19.90
2022-08-24T08:08:58.638Z,19.90
2022-08-24T08:11:28.884Z,19.90
2022-08-24T08:13:59.132Z,19.80
2022-08-24T08:16:32.162Z,19.80
2022-08-24T08:19:10.493Z,19.80
2022-08-24T08:21:58.617Z,19.90
2022-08-24T08:24:28.956Z,19.90
2022-08-24T08:27:01.001Z,20.00
2022-08-24T08:29:34.481Z,20.10
2022-08-24T08:32:07.837Z,20.10
2022-08-24T08:34:38.044Z,20.20
2022-08-24T08:37:08.888Z,20.20
2022-08-24T08:39:40.675Z,20.20
2022-08-24T08:42:50.248Z,20.30
2022-08-24T08:45:44.413Z,20.30
2022-08-24T08:48:53.406Z,20.40
2022-08-24T08:52:14.060Z,20.40
2022-08-24T08:55:07.886Z,20.40
2022-08-24T08:57:58.227Z,20.40
2022-08-24T09:00:35.269Z,20.40
2022-08-24T09:03:40.146Z,20.40
2022-08-24T09:06:38.415Z,20.50
2022-08-24T09:09:34.986Z,20.50
2022-08-24T09:12:20.734Z,20.60
2022-08-24T09:15:28.857Z,20.60
2022-08-24T09:18:15.048Z,20.70
2022-08-24T09:21:05.941Z,20.70
2022-08-24T09:23:46.535Z,20.80
2022-08-24T09:26:29.292Z,20.80
2022-08-24T09:29:13.692Z,20.80
2022-08-24T09:32:20.886Z,20.90
2022-08-24T09:34:57.949Z,21.00
2022-08-24T09:37:43.903Z,21.00
2022-08-24T09:40:41.321Z,21.10
2022-08-24T09:44:08.556Z,21.20
2022-08-24T09:47:42.714Z,21.30
2022-08-24T09:50:51.713Z,21.50
2022-08-24T09:54:14.303Z,21.60
2022-08-24T09:57:14.206Z,21.60
2022-08-24T10:00:14.348Z,21.70
2022-08-24T10:03:02.031Z,21.70
2022-08-24T10:05:52.784Z,21.80
2022-08-24T10:08:36.964Z,21.70
2022-08-24T10:11:19.732Z,21.70
2022-08-24T10:13:59.301Z,21.70
2022-08-24T10:16:51.658Z,21.80
2022-08-24T10:19:51.947Z,21.90
2022-08-24T10:22:44.980Z,22.20
2022-08-24T10:25:34.369Z,22.60
2022-08-24T10:28:27.872Z,22.70
2022-08-24T10:31:12.930Z,22.70
2022-08-24T10:34:04.488Z,22.80
2022-08-24T10:37:04.941Z,22.90
2022-08-24T10:40:14.029Z,22.80
2022-08-24T10:43:28.336Z,22.70
2022-08-24T10:46:28.562Z,22.70
2022-08-24T10:49:49.417Z,22.70
2022-08-24T10:52:52.172Z,22.70
2022-08-24T10:55:27.928Z,22.70
2022-08-24T10:58:29.675Z,23.00
2022-08-24T11:01:19.545Z,23.20
2022-08-24T11:04:05.260Z,23.20
2022-08-24T11:06:39.001Z,23.00
2022-08-24T11:09:19.169Z,22.90
2022-08-24T11:11:53.089Z,22.80
2022-08-24T11:14:32.385Z,22.90
2022-08-24T11:17:21.272Z,22.90
2022-08-24T11:19:53.143Z,22.90
2022-08-24T11:22:44.337Z,22.90
2022-08-24T11:25:22.384Z,22.80
2022-08-24T11:27:55.898Z,22.80
2022-08-24T11:30:32.389Z,22.80
2022-08-24T11:33:06.363Z,22.80
2022-08-24T11:35:41.698Z,22.80
2022-08-24T11:38:20.192Z,22.90
2022-08-24T11:40:56.820Z,23.00
2022-08-24T11:43:40.980Z,23.10
2022-08-24T11:46:22.701Z,23.30
2022-08-24T11:49:05.552Z,23.30
2022-08-24T11:51:46.581Z,23.40
2022-08-24T11:54:28.345Z,23.70
2022-08-24T11:57:12.486Z,23.80
2022-08-24T11:59:56.201Z,24.00
2022-08-24T12:02:37.338Z,23.90
2022-08-24T12:05:25.712Z,24.10
2022-08-24T12:08:08.895Z,24.10
2022-08-24T12:10:49.474Z,24.20
2022-08-24T12:13:35.576Z,24.20
2022-08-24T12:16:13.330Z,24.10
2022-08-24T12:19:02.671Z,24.00
2022-08-24T12:21:36.036Z,24.10
2022-08-24T12:24:10.969Z,24.20
2022-08-24T12:26:45.958Z,24.30
2022-08-24T12:29:23.159Z,24.30
2022-08-24T12:31:58.848Z,24.40
2022-08-24T12:34:40.520Z,24.30
2022-08-24T12:37:17.557Z,24.40
2022-08-24T12:39:53.968Z,24.40
2022-08-24T12:42:28.811Z,24.30
2022-08-24T12:45:06.869Z,24.30
2022-08-24T12:47:47.906Z,24.30
2022-08-24T12:50:31.364Z,24.50
2022-08-24T12:53:40.413Z,24.40
2022-08-24T12:57:02.557Z,24.50
2022-08-24T12:59:38.389Z,24.70
2022-08-24T13:02:28.886Z,24.70
2022-08-24T13:05:03.356Z,24.70
2022-08-24T13:07:45.352Z,24.80
2022-08-24T13:10:38.384Z,24.70
2022-08-24T13:13:23.452Z,24.80
2022-08-24T13:16:04.109Z,25.00
2022-08-24T13:19:16.105Z,24.80
2022-08-24T13:21:59.998Z,24.90
2022-08-24T13:24:59.074Z,25.20
2022-08-24T13:28:09.991Z,25.10
2022-08-24T13:31:17.635Z,24.80
2022-08-24T13:33:51.916Z,24.80
2022-08-24T13:36:49.949Z,24.70
2022-08-24T13:39:59.187Z,24.60
2022-08-24T13:43:16.335Z,24.60
2022-08-24T13:45:52.742Z,24.60
2022-08-24T13:48:41.425Z,24.60
2022-08-24T13:51:37.169Z,24.70
2022-08-24T13:54:25.213Z,24.70
2022-08-24T13:57:27.340Z,24.70
2022-08-24T14:00:39.529Z,24.90
2022-08-24T14:03:26.790Z,25.10
2022-08-24T14:06:02.680Z,25.30
2022-08-24T14:08:49.092Z,25.40
2022-08-24T14:11:38.379Z,25.40
2022-08-24T14:14:19.791Z,25.60
2022-08-24T14:17:35.442Z,25.60
2022-08-24T14:20:14.532Z,25.70
2022-08-24T14:23:04.231Z,25.70
2022-08-24T14:25:37.634Z,25.70
2022-08-24T14:28:36.144Z,25.70
2022-08-24T14:31:28.320Z,25.70
2022-08-24T14:34:19.147Z,25.60
2022-08-24T14:37:01.087Z,25.40
2022-08-24T14:39:42.301Z,25.40
2022-08-24T14:42:21.383Z,25.40
2022-08-24T14:45:06.872Z,25.50
2022-08-24T14:48:02.009Z,25.40
2022-08-24T14:50:43.501Z,25.30
2022-08-24T14:53:45.373Z,25.20
2022-08-24T14:56:25.387Z,25.10
2022-08-24T14:59:08.440Z,25.10
2022-08-24T15:01:44.918Z,25.10
2022-08-24T15:04:43.247Z,25.10
2022-08-24T15:07:32.655Z,25.00
2022-08-24T15:10:05.860Z,25.00
2022-08-24T15:12:42.753Z,25.10
2022-08-24T15:15:21.196Z,25.10
2022-08-24T15:18:06.874Z,25.10
2022-08-24T15:21:06.339Z,25.00
2022-08-24T15:24:09.892Z,25.00
2022-08-24T15:27:01.477Z,25.00
2022-08-24T15:29:34.988Z,25.10
2022-08-24T15:32:11.633Z,25.20
2022-08-24T15:34:48.889Z,25.20
2022-08-24T15:37:29.314Z,25.30
2022-08-24T15:40:04.693Z,25.40
2022-08-24T15:42:38.990Z,25.50
2022-08-24T15:45:09.641Z,25.40
2022-08-24T15:47:43.164Z,25.40
2022-08-24T15:50:26.772Z,25.40
2022-08-24T15:53:01.915Z,25.40
2022-08-24T15:55:42.036Z,25.40
2022-08-24T15:58:35.753Z,25.40
2022-08-24T16:01:42.773Z,25.40
2022-08-24T16:04:43.483Z,25.40
2022-08-24T16:07:20.021Z,25.50
2022-08-24T16:09:50.635Z,25.40
2022-08-24T16:12:32.402Z,25.40
2022-08-24T16:15:17.284Z,25.40
2022-08-24T16:17:52.605Z,25.40
2022-08-24T16:20:36.256Z,25.30
2022-08-24T16:23:10.939Z,25.30
2022-08-24T16:25:44.698Z,25.20
2022-08-24T16:28:37.936Z,25.20
2022-08-24T16:31:09.735Z,25.10
2022-08-24T16:33:45.893Z,25.20
2022-08-24T16:36:20.204Z,25.10
2022-08-24T16:38:51.832Z,25.10
2022-08-24T16:41:25.823Z,25.00
2022-08-24T16:43:58.749Z,25.00
2022-08-24T16:46:29.005Z,25.00
2022-08-24T16:48:59.306Z,25.10
2022-08-24T16:51:29.677Z,25.10
2022-08-24T16:54:00.646Z,25.10
2022-08-24T16:56:31.531Z,25.20
2022-08-24T16:59:04.655Z,25.20
2022-08-24T17:01:34.987Z,25.20
2022-08-24T17:04:05.552Z,25.20
2022-08-24T17:06:35.865Z,25.10
2022-08-24T17:09:06.680Z,25.10
2022-08-24T17:11:39.505Z,25.10
2022-08-24T17:14:13.235Z,25.10
2022-08-24T17:16:43.864Z,25.10
2022-08-24T17:19:17.533Z,25.00
2022-08-24T17:21:48.472Z,25.00
2022-08-24T17:24:23.038Z,24.90
2022-08-24T17:26:53.929Z,24.90
2022-08-24T17:29:27.645Z,24.90
2022-08-24T17:31:59.220Z,24.80
2022-08-24T17:34:30.445Z,24.80
2022-08-24T17:37:01.961Z,24.80
2022-08-24T17:39:32.260Z,24.80
2022-08-24T17:42:03.748Z,24.70
2022-08-24T17:44:37.108Z,24.70
2022-08-24T17:47:08.748Z,24.60
2022-08-24T17:49:39.450Z,24.60
2022-08-24T17:52:10.090Z,24.50
2022-08-24T17:54:40.408Z,24.50
2022-08-24T17:57:10.909Z,24.40
2022-08-24T17:59:44.770Z,24.40
2022-08-24T18:02:16.395Z,24.30
2022-08-24T18:04:46.716Z,24.30
2022-08-24T18:07:42.311Z,24.30
2022-08-24T18:10:16.975Z,24.20
2022-08-24T18:12:47.216Z,24.10
2022-08-24T18:15:20.484Z,24.10
2022-08-24T18:17:54.445Z,24.00
2022-08-24T18:20:29.909Z,23.90
2022-08-24T18:23:00.174Z,23.90
2022-08-24T18:25:31.691Z,23.90
2022-08-24T18:28:02.796Z,23.80
2022-08-24T18:30:37.083Z,23.80
2022-08-24T18:33:08.550Z,23.70
2022-08-24T18:35:38.852Z,23.60
2022-08-24T18:38:09.053Z,23.60
2022-08-24T18:40:39.413Z,23.50
2022-08-24T18:43:09.996Z,23.50
2022-08-24T18:45:42.996Z,23.40
2022-08-24T18:48:13.408Z,23.40
2022-08-24T18:50:43.834Z,23.40
2022-08-24T18:53:14.298Z,23.30
2022-08-24T18:55:47.304Z,23.20
2022-08-24T18:58:17.562Z,23.20
2022-08-24T19:00:52.473Z,23.10
2022-08-24T19:03:26.984Z,23.10
2022-08-24T19:05:57.840Z,23.00
2022-08-24T19:08:28.157Z,22.90
2022-08-24T19:10:59.291Z,22.90
2022-08-24T19:13:29.908Z,22.80
2022-08-24T19:16:04.195Z,22.80
2022-08-24T19:18:34.858Z,22.70
2022-08-24T19:21:05.198Z,22.70
2022-08-24T19:23:39.216Z,22.70
2022-08-24T19:26:09.916Z,22.60
2022-08-24T19:28:40.311Z,22.60
2022-08-24T19:31:16.388Z,22.50
2022-08-24T19:33:49.785Z,22.50
2022-08-24T19:36:22.038Z,22.40
2022-08-24T19:38:52.306Z,22.40
2022-08-24T19:41:22.649Z,22.40
2022-08-24T19:44:27.634Z,22.30
2022-08-24T19:47:01.429Z,22.20
2022-08-24T19:49:33.293Z,22.20
2022-08-24T19:52:04.165Z,22.10
2022-08-24T19:54:39.672Z,22.10
2022-08-24T19:57:37.652Z,22.10
2022-08-24T20:00:29.215Z,22.10
2022-08-24T20:03:03.344Z,22.00
2022-08-24T20:05:33.884Z,22.00
2022-08-24T20:08:05.738Z,21.90
2022-08-24T20:10:37.156Z,21.90
2022-08-24T20:13:07.516Z,21.80
2022-08-24T20:15:38.256Z,21.80
2022-08-24T20:18:11.611Z,21.80
2022-08-24T20:20:41.908Z,21.70
2022-08-24T20:23:12.403Z,21.70
2022-08-24T20:25:43.356Z,21.70
2022-08-24T20:28:37.867Z,21.70
2022-08-24T20:31:09.484Z,21.60
2022-08-24T20:33:42.614Z,21.50
2022-08-24T20:36:24.415Z,21.50
2022-08-24T20:38:55.338Z,21.50
2022-08-24T20:41:27.528Z,21.40
2022-08-24T20:43:57.947Z,21.40
2022-08-24T20:46:29.375Z,21.40
2022-08-24T20:49:02.965Z,21.40
2022-08-24T20:51:33.480Z,21.40
2022-08-24T20:54:06.303Z,21.40
2022-08-24T20:56:40.455Z,21.30
2022-08-24T20:59:13.292Z,21.30
2022-08-24T21:01:46.010Z,21.20
2022-08-24T21:04:18.918Z,21.20
2022-08-24T21:06:50.795Z,21.20
2022-08-24T21:09:21.792Z,21.10
2022-08-24T21:11:52.218Z,21.10
2022-08-24T21:14:22.850Z,21.10
2022-08-24T21:16:53.011Z,21.10
2022-08-24T21:19:26.064Z,21.10
2022-08-24T21:21:56.213Z,21.00
2022-08-24T21:24:27.865Z,21.00
2022-08-24T21:26:58.387Z,21.00
2022-08-24T21:29:33.395Z,21.00
2022-08-24T21:32:16.004Z,21.00
2022-08-24T21:34:48.844Z,20.90
2022-08-24T21:37:21.858Z,20.90
2022-08-24T21:39:52.218Z,20.90
2022-08-24T21:42:23.212Z,20.90
2022-08-24T21:44:53.426Z,20.90
2022-08-24T21:47:23.701Z,20.80
2022-08-24T21:49:56.649Z,20.80
2022-08-24T21:52:26.951Z,20.80
2022-08-24T21:54:57.525Z,20.80
2022-08-24T21:57:27.998Z,20.80
2022-08-24T21:59:58.210Z,20.80
2022-08-24T22:02:29.730Z,20.80
2022-08-24T22:05:02.720Z,20.80
2022-08-24T22:07:33.069Z,20.70
2022-08-24T22:10:03.627Z,20.70
2022-08-24T22:12:36.322Z,20.70
2022-08-24T22:15:11.362Z,20.70
2022-08-24T22:17:42.128Z,20.70
2022-08-24T22:20:23.067Z,20.60
2022-08-24T22:22:54.387Z,20.60
2022-08-24T22:25:24.731Z,20.60
2022-08-24T22:27:55.142Z,20.60
2022-08-24T22:30:25.848Z,20.60
2022-08-24T22:32:56.068Z,20.60
2022-08-24T22:35:29.168Z,20.50
2022-08-24T22:38:02.121Z,20.50
2022-08-24T22:40:33.910Z,20.50
2022-08-24T22:43:05.287Z,20.50
2022-08-24T22:45:35.739Z,20.50
2022-08-24T22:48:09.138Z,20.50
2022-08-24T22:50:46.537Z,20.40
2022-08-24T22:53:17.064Z,20.40
2022-08-24T22:55:47.253Z,20.30
2022-08-24T22:58:17.486Z,20.20
2022-08-24T23:00:47.691Z,20.20
2022-08-24T23:03:17.986Z,20.10
2022-08-24T23:05:51.970Z,20.10
2022-08-24T23:08:22.250Z,20.10
2022-08-24T23:10:53.181Z,20.20
2022-08-24T23:13:28.788Z,20.10
2022-08-24T23:15:59.116Z,20.10
2022-08-24T23:18:42.080Z,19.90
2022-08-24T23:21:18.322Z,19.90
2022-08-24T23:23:50.155Z,19.90
2022-08-24T23:26:21.313Z,19.80
2022-08-24T23:28:53.490Z,19.80
2022-08-24T23:31:25.026Z,19.70
2022-08-24T23:33:55.166Z,19.80
2022-08-24T23:36:30.176Z,19.70
2022-08-24T23:39:01.968Z,19.70
2022-08-24T23:41:35.043Z,19.70
2022-08-24T23:44:09.650Z,19.70
2022-08-24T23:46:41.491Z,19.70
2022-08-24T23:49:12.980Z,19.70
2022-08-24T23:51:46.508Z,19.60
2022-08-24T23:54:17.561Z,19.60
2022-08-24T23:56:50.408Z,19.60
2022-08-24T23:59:25.805Z,19.60
